YPGV/GOV METAR and TAF weather

Enter ICAO airport designator
Station Type Date Time Source
YPGV METAR 2020/09/22 02:00 UTC NOAA

YPGV 220200Z 11012KT 9999 BKN028 29/20 Q1014


Station Type Date Time Source
YPGV Decoded METAR 2020/09/22 02:00 UTC NOAA

Station name not available
Sep 21, 2020 - 10:00 PM EDT / 2020.09.22 0200 UTC
Wind: from the ESE (110 degrees) at 14 MPH (12 KT):0
Visibility: greater than 7 mile(s):0
Sky conditions: mostly cloudy
Temperature: 84 F (29 C)
Dew Point: 68 F (20 C)
Relative Humidity: 58%
Pressure (altimeter): 29.94 in. Hg (1014 hPa)
ob: YPGV 220200Z 11012KT 9999 BKN028 29/20 Q1014
cycle: 2

Station Type Date Time Source
YPGV TAF 2020/09/22 02:00 UTC NOAA

TAF YPGV 220106Z 2202/2214 09012KT 9999 SCT030
FM220900 10008KT 9999 SCT020

Example: see airport list